North Hollywood, CA (91609)

11:47 PM PDT on September 17, 2014 (GMT -0700)
North Hollywood, CA | Change Station
CLOSE
Current Station
Personal Weather Station
Location: North Hollywood, CA
Elevation: 679 ft
Nearby Weather Stations

Elev 679 ft 34.18 °N, 118.37 °W | Updated 38 seconds ago

Clear
Clear
78.1 °F
Feels Like 78 °F
N
2.5
Wind Variable Wind from ENE
Gusts 2.5 mph

Today
High -- | Low -- °F
--% Chance of Precip.
Yesterday
High -- | Low -- °F
Precip. -- in
6:38 AM 6:57 PM
Waning Crescent, 29% visible
Pressure 29.74 in
Visibility 10.0 miles
Clouds Clear
Heat Index 78 °F
Dew Point 47 °F
Humidity 34%
Rainfall 0.00 in
Snow Depth 0 in , 1 in , 0 in
UV 0 out of 12
Pollen 6.90 out of 12
Ozone Good
PM2.5 Moderate
Flu Activity Not available.
METAR KBUR 180553Z 15005KT 10SM CLR 26/13 A2979 RMK AO2 SLP071 T02610128 10350 20261 51015

More Conditions Fewer Conditions

Pressure 29.74 in
Visibility 10.0 miles
Clouds Clear
Heat Index 78 °F
Dew Point 47 °F
Humidity 34%
Rainfall 0.00 in
Snow Depth 0 in , 1 in , 0 in
UV 0 out of 12
Pollen 6.90 out of 12
Ozone Good
PM2.5 Moderate
Flu Activity Not available.
METAR KBUR 180553Z 15005KT 10SM CLR 26/13 A2979 RMK AO2 SLP071 T02610128 10350 20261 51015

More Conditions Fewer Conditions

10-Day Weather Forecast

Almanac

Astronomy

Sep. 17, 2014 Rise Set
Actual Time 6:38 AM PDT 6:57 PM PDT
Civil Twilight 6:13 AM PDT 7:22 PM PDT
Nautical Twilight 5:43 AM PDT 7:51 PM PDT
Astronomical Twilight 5:13 AM PDT 8:21 PM PDT
Moon 12:53 AM PDT (9/17) 2:59 PM PDT (9/17)
Length of Visible Light 13h 09m
Length of Day
12h 19m
Tomorrow will be 2m 6s shorter.
Waning Crescent, 29% of the Moon is Illuminated
Sep 18
Waning Crescent
Sep 24
New
Oct 1
First Quarter
Oct 8
Full
Oct 15
Last Quarter

Community

WunderPhotos

Upload Photos

1,754,298 photos uploaded!

Nearby

Air Quality

  Air Quality AQ Index Pollutant
Yesterday Unhealthy for Sensitive Groups
OZONE
Yesterday Moderate
PM2.5
Current Moderate
PM2.5
Current Good
OZONE
Thursday Moderate
OZONE
Thursday Good
PM10
Thursday Good
CO
Thursday Good
NO2

Snow Depth

Station Depth Elevation
Summit Meadow 0 in 9122 ft
Monitor Pass 1 in 8350 ft
Tahoe City Cross 0 in 6750 ft
Leavitt Meadows 1 in 7200 ft
Leavitt Lake 0 in 9400 ft

Earthquake Activity

City Distance Mag. Time & Date
La Quinta, California 120 miles 2.7 8:59 PM PDT
2014-09-15
Minimum magnitude displayed is 2.5.

Coastal Water Temperatures

Place Temperature
Santa Monica Pier 72.0 °F
Los Angeles, CA 68.0 °F
La Jolla, CA 73.0 °F

Nearby Weather Stations